sensor_id;sensor_type;location;lat;lon;timestamp;P1;durP1;ratioP1;P2;durP2;ratioP2
19111;SDS011;9688;51.906;8.376;2023-02-11T00:02:31;65.17;;;28.60;;
19111;SDS011;9688;51.906;8.376;2023-02-11T00:05:17;63.97;;;28.50;;
19111;SDS011;9688;51.906;8.376;2023-02-11T00:08:03;67.83;;;29.53;;
19111;SDS011;9688;51.906;8.376;2023-02-11T00:10:51;66.13;;;29.03;;
19111;SDS011;9688;51.906;8.376;2023-02-11T00:13:37;68.07;;;29.03;;
19111;SDS011;9688;51.906;8.376;2023-02-11T00:16:23;65.43;;;29.83;;
19111;SDS011;9688;51.906;8.376;2023-02-11T00:19:09;65.73;;;28.93;;
19111;SDS011;9688;51.906;8.376;2023-02-11T00:21:55;64.20;;;30.07;;
19111;SDS011;9688;51.906;8.376;2023-02-11T00:24:41;63.43;;;28.83;;
19111;SDS011;9688;51.906;8.376;2023-02-11T00:27:28;63.50;;;27.37;;
19111;SDS011;9688;51.906;8.376;2023-02-11T00:30:15;65.60;;;29.57;;
19111;SDS011;9688;51.906;8.376;2023-02-11T00:33:01;65.50;;;29.80;;
19111;SDS011;9688;51.906;8.376;2023-02-11T00:35:47;66.17;;;28.57;;
19111;SDS011;9688;51.906;8.376;2023-02-11T00:38:33;59.27;;;27.97;;
19111;SDS011;9688;51.906;8.376;2023-02-11T00:41:20;65.00;;;28.10;;
19111;SDS011;9688;51.906;8.376;2023-02-11T00:44:07;63.33;;;28.27;;
19111;SDS011;9688;51.906;8.376;2023-02-11T00:46:53;67.47;;;29.03;;
19111;SDS011;9688;51.906;8.376;2023-02-11T00:49:39;64.40;;;28.67;;
19111;SDS011;9688;51.906;8.376;2023-02-11T00:52:25;64.60;;;28.97;;
19111;SDS011;9688;51.906;8.376;2023-02-11T00:55:11;64.27;;;28.70;;
19111;SDS011;9688;51.906;8.376;2023-02-11T00:57:57;66.40;;;29.03;;
19111;SDS011;9688;51.906;8.376;2023-02-11T01:00:45;63.73;;;29.90;;
19111;SDS011;9688;51.906;8.376;2023-02-11T01:03:31;68.20;;;29.87;;
19111;SDS011;9688;51.906;8.376;2023-02-11T01:06:17;62.40;;;29.10;;
19111;SDS011;9688;51.906;8.376;2023-02-11T01:09:03;65.20;;;29.23;;
19111;SDS011;9688;51.906;8.376;2023-02-11T01:11:49;60.77;;;29.00;;
19111;SDS011;9688;51.906;8.376;2023-02-11T01:14:35;68.70;;;28.27;;
19111;SDS011;9688;51.906;8.376;2023-02-11T01:17:22;69.23;;;28.63;;
19111;SDS011;9688;51.906;8.376;2023-02-11T01:20:10;66.90;;;29.53;;
19111;SDS011;9688;51.906;8.376;2023-02-11T01:22:59;69.63;;;29.87;;
19111;SDS011;9688;51.906;8.376;2023-02-11T01:25:44;69.63;;;30.80;;
19111;SDS011;9688;51.906;8.376;2023-02-11T01:28:31;64.33;;;28.67;;
19111;SDS011;9688;51.906;8.376;2023-02-11T01:31:16;66.53;;;29.83;;
19111;SDS011;9688;51.906;8.376;2023-02-11T01:34:04;75.37;;;30.33;;
19111;SDS011;9688;51.906;8.376;2023-02-11T01:36:49;70.30;;;29.47;;
19111;SDS011;9688;51.906;8.376;2023-02-11T01:39:35;66.20;;;29.20;;
19111;SDS011;9688;51.906;8.376;2023-02-11T01:42:21;62.97;;;29.90;;
19111;SDS011;9688;51.906;8.376;2023-02-11T01:48:41;69.43;;;30.50;;
19111;SDS011;9688;51.906;8.376;2023-02-11T01:51:31;68.87;;;31.23;;
19111;SDS011;9688;51.906;8.376;2023-02-11T01:54:21;68.23;;;29.37;;
19111;SDS011;9688;51.906;8.376;2023-02-11T01:57:28;70.43;;;31.40;;
19111;SDS011;9688;51.906;8.376;2023-02-11T02:00:17;67.47;;;30.03;;
19111;SDS011;9688;51.906;8.376;2023-02-11T02:03:07;68.20;;;30.03;;
19111;SDS011;9688;51.906;8.376;2023-02-11T02:05:56;77.13;;;31.80;;
19111;SDS011;9688;51.906;8.376;2023-02-11T02:08:50;70.13;;;29.90;;
19111;SDS011;9688;51.906;8.376;2023-02-11T02:11:39;68.03;;;29.83;;
19111;SDS011;9688;51.906;8.376;2023-02-11T02:14:25;66.10;;;29.73;;
19111;SDS011;9688;51.906;8.376;2023-02-11T02:17:14;75.20;;;30.53;;
19111;SDS011;9688;51.906;8.376;2023-02-11T02:23:38;71.93;;;30.23;;
19111;SDS011;9688;51.906;8.376;2023-02-11T02:30:18;64.77;;;28.90;;
19111;SDS011;9688;51.906;8.376;2023-02-11T02:36:30;61.23;;;28.50;;
19111;SDS011;9688;51.906;8.376;2023-02-11T02:39:23;69.63;;;28.43;;
19111;SDS011;9688;51.906;8.376;2023-02-11T02:42:12;64.33;;;29.17;;
19111;SDS011;9688;51.906;8.376;2023-02-11T02:45:00;55.23;;;27.47;;
19111;SDS011;9688;51.906;8.376;2023-02-11T02:47:45;64.30;;;28.00;;
19111;SDS011;9688;51.906;8.376;2023-02-11T02:50:34;62.63;;;27.40;;
19111;SDS011;9688;51.906;8.376;2023-02-11T02:53:23;61.80;;;26.93;;
19111;SDS011;9688;51.906;8.376;2023-02-11T02:56:17;69.00;;;28.50;;
19111;SDS011;9688;51.906;8.376;2023-02-11T02:59:18;59.07;;;25.90;;
19111;SDS011;9688;51.906;8.376;2023-02-11T03:02:14;55.70;;;26.00;;
19111;SDS011;9688;51.906;8.376;2023-02-11T03:05:05;59.20;;;26.83;;
19111;SDS011;9688;51.906;8.376;2023-02-11T03:08:04;57.37;;;25.57;;
19111;SDS011;9688;51.906;8.376;2023-02-11T03:10:53;57.10;;;25.60;;
19111;SDS011;9688;51.906;8.376;2023-02-11T03:13:40;56.20;;;25.47;;
19111;SDS011;9688;51.906;8.376;2023-02-11T03:16:28;56.37;;;24.23;;
19111;SDS011;9688;51.906;8.376;2023-02-11T03:19:21;54.07;;;25.67;;
19111;SDS011;9688;51.906;8.376;2023-02-11T03:22:11;55.57;;;23.93;;
19111;SDS011;9688;51.906;8.376;2023-02-11T03:25:02;51.07;;;24.10;;
19111;SDS011;9688;51.906;8.376;2023-02-11T03:27:50;52.13;;;25.33;;
19111;SDS011;9688;51.906;8.376;2023-02-11T03:30:42;52.20;;;24.10;;
19111;SDS011;9688;51.906;8.376;2023-02-11T03:33:34;54.70;;;25.33;;
19111;SDS011;9688;51.906;8.376;2023-02-11T03:36:25;51.70;;;22.50;;
19111;SDS011;9688;51.906;8.376;2023-02-11T03:39:20;43.63;;;21.20;;
19111;SDS011;9688;51.906;8.376;2023-02-11T03:42:11;51.63;;;22.27;;
19111;SDS011;9688;51.906;8.376;2023-02-11T03:45:02;51.03;;;22.90;;
19111;SDS011;9688;51.906;8.376;2023-02-11T03:47:53;47.53;;;22.50;;
19111;SDS011;9688;51.906;8.376;2023-02-11T03:50:41;50.47;;;22.53;;
19111;SDS011;9688;51.906;8.376;2023-02-11T03:53:29;46.77;;;22.67;;
19111;SDS011;9688;51.906;8.376;2023-02-11T03:56:17;47.63;;;22.37;;
19111;SDS011;9688;51.906;8.376;2023-02-11T03:59:08;52.17;;;22.93;;
19111;SDS011;9688;51.906;8.376;2023-02-11T04:01:53;51.40;;;22.73;;
19111;SDS011;9688;51.906;8.376;2023-02-11T04:04:40;50.43;;;22.93;;
19111;SDS011;9688;51.906;8.376;2023-02-11T04:07:26;48.33;;;21.97;;
19111;SDS011;9688;51.906;8.376;2023-02-11T04:10:14;51.17;;;23.77;;
19111;SDS011;9688;51.906;8.376;2023-02-11T04:12:59;53.17;;;22.93;;
19111;SDS011;9688;51.906;8.376;2023-02-11T04:15:50;53.43;;;23.30;;
19111;SDS011;9688;51.906;8.376;2023-02-11T04:18:35;44.40;;;22.20;;
19111;SDS011;9688;51.906;8.376;2023-02-11T04:21:21;46.40;;;21.90;;
19111;SDS011;9688;51.906;8.376;2023-02-11T04:24:07;49.43;;;23.93;;
19111;SDS011;9688;51.906;8.376;2023-02-11T04:26:53;46.77;;;22.37;;
19111;SDS011;9688;51.906;8.376;2023-02-11T04:29:38;52.67;;;22.97;;
19111;SDS011;9688;51.906;8.376;2023-02-11T04:32:26;56.07;;;23.20;;
19111;SDS011;9688;51.906;8.376;2023-02-11T04:35:12;55.23;;;22.53;;
19111;SDS011;9688;51.906;8.376;2023-02-11T04:37:57;50.40;;;22.73;;
19111;SDS011;9688;51.906;8.376;2023-02-11T04:40:43;51.07;;;23.00;;
19111;SDS011;9688;51.906;8.376;2023-02-11T04:43:29;50.30;;;22.70;;
19111;SDS011;9688;51.906;8.376;2023-02-11T04:46:15;52.50;;;23.27;;
19111;SDS011;9688;51.906;8.376;2023-02-11T04:49:02;50.70;;;24.10;;
19111;SDS011;9688;51.906;8.376;2023-02-11T04:51:48;49.90;;;23.33;;
19111;SDS011;9688;51.906;8.376;2023-02-11T04:54:34;49.27;;;22.87;;
19111;SDS011;9688;51.906;8.376;2023-02-11T04:57:21;49.33;;;24.03;;
19111;SDS011;9688;51.906;8.376;2023-02-11T05:00:07;51.87;;;23.50;;
19111;SDS011;9688;51.906;8.376;2023-02-11T05:02:54;47.53;;;23.53;;
19111;SDS011;9688;51.906;8.376;2023-02-11T05:05:42;55.13;;;25.07;;
19111;SDS011;9688;51.906;8.376;2023-02-11T05:08:28;55.27;;;24.43;;
19111;SDS011;9688;51.906;8.376;2023-02-11T05:11:15;51.87;;;24.93;;
19111;SDS011;9688;51.906;8.376;2023-02-11T05:14:02;54.67;;;25.53;;
19111;SDS011;9688;51.906;8.376;2023-02-11T05:16:48;56.53;;;25.13;;
19111;SDS011;9688;51.906;8.376;2023-02-11T05:19:34;58.17;;;25.60;;
19111;SDS011;9688;51.906;8.376;2023-02-11T05:22:21;57.83;;;26.57;;
19111;SDS011;9688;51.906;8.376;2023-02-11T05:25:07;56.17;;;26.57;;
19111;SDS011;9688;51.906;8.376;2023-02-11T05:27:53;63.63;;;26.93;;
19111;SDS011;9688;51.906;8.376;2023-02-11T05:30:39;56.80;;;26.57;;
19111;SDS011;9688;51.906;8.376;2023-02-11T05:33:26;57.03;;;26.13;;
19111;SDS011;9688;51.906;8.376;2023-02-11T05:36:18;54.80;;;26.53;;
19111;SDS011;9688;51.906;8.376;2023-02-11T05:39:07;64.20;;;27.17;;
19111;SDS011;9688;51.906;8.376;2023-02-11T05:41:52;71.10;;;27.83;;
19111;SDS011;9688;51.906;8.376;2023-02-11T05:44:39;62.10;;;27.90;;
19111;SDS011;9688;51.906;8.376;2023-02-11T05:47:24;71.27;;;29.43;;
19111;SDS011;9688;51.906;8.376;2023-02-11T05:50:10;64.33;;;28.87;;
19111;SDS011;9688;51.906;8.376;2023-02-11T05:52:59;58.87;;;29.30;;
19111;SDS011;9688;51.906;8.376;2023-02-11T05:55:46;69.40;;;29.53;;
19111;SDS011;9688;51.906;8.376;2023-02-11T05:58:32;68.50;;;29.30;;
19111;SDS011;9688;51.906;8.376;2023-02-11T06:01:17;66.23;;;29.40;;
19111;SDS011;9688;51.906;8.376;2023-02-11T06:04:03;63.30;;;31.13;;
19111;SDS011;9688;51.906;8.376;2023-02-11T06:06:49;67.33;;;29.17;;
19111;SDS011;9688;51.906;8.376;2023-02-11T06:09:35;74.67;;;31.13;;
19111;SDS011;9688;51.906;8.376;2023-02-11T06:12:22;67.27;;;30.67;;
19111;SDS011;9688;51.906;8.376;2023-02-11T06:15:08;67.10;;;30.40;;
19111;SDS011;9688;51.906;8.376;2023-02-11T06:17:53;67.03;;;30.03;;
19111;SDS011;9688;51.906;8.376;2023-02-11T06:20:39;77.37;;;32.07;;
19111;SDS011;9688;51.906;8.376;2023-02-11T06:23:25;68.43;;;30.67;;
19111;SDS011;9688;51.906;8.376;2023-02-11T06:26:14;72.00;;;30.87;;
19111;SDS011;9688;51.906;8.376;2023-02-11T06:29:02;79.03;;;32.23;;
19111;SDS011;9688;51.906;8.376;2023-02-11T06:31:49;66.03;;;29.80;;
19111;SDS011;9688;51.906;8.376;2023-02-11T06:34:34;67.93;;;29.93;;
19111;SDS011;9688;51.906;8.376;2023-02-11T06:37:20;72.03;;;30.63;;
19111;SDS011;9688;51.906;8.376;2023-02-11T06:40:07;73.43;;;33.03;;
19111;SDS011;9688;51.906;8.376;2023-02-11T06:42:53;72.07;;;30.93;;
19111;SDS011;9688;51.906;8.376;2023-02-11T06:45:40;74.73;;;32.47;;
19111;SDS011;9688;51.906;8.376;2023-02-11T06:48:26;64.60;;;31.27;;
19111;SDS011;9688;51.906;8.376;2023-02-11T06:51:13;73.57;;;30.67;;
19111;SDS011;9688;51.906;8.376;2023-02-11T06:53:59;63.33;;;31.23;;
19111;SDS011;9688;51.906;8.376;2023-02-11T06:56:45;71.87;;;30.57;;
19111;SDS011;9688;51.906;8.376;2023-02-11T06:59:31;77.97;;;31.43;;
19111;SDS011;9688;51.906;8.376;2023-02-11T07:02:18;69.40;;;31.77;;
19111;SDS011;9688;51.906;8.376;2023-02-11T07:05:04;70.20;;;32.23;;
19111;SDS011;9688;51.906;8.376;2023-02-11T07:07:50;67.43;;;30.73;;
19111;SDS011;9688;51.906;8.376;2023-02-11T07:10:36;79.47;;;32.47;;
19111;SDS011;9688;51.906;8.376;2023-02-11T07:13:22;73.53;;;33.10;;
19111;SDS011;9688;51.906;8.376;2023-02-11T07:16:08;70.57;;;31.47;;
19111;SDS011;9688;51.906;8.376;2023-02-11T07:18:58;74.47;;;31.93;;
19111;SDS011;9688;51.906;8.376;2023-02-11T07:21:43;73.43;;;32.57;;
19111;SDS011;9688;51.906;8.376;2023-02-11T07:24:29;81.27;;;34.33;;
19111;SDS011;9688;51.906;8.376;2023-02-11T07:27:15;75.33;;;33.17;;
19111;SDS011;9688;51.906;8.376;2023-02-11T07:30:08;72.53;;;33.20;;
19111;SDS011;9688;51.906;8.376;2023-02-11T07:32:56;75.20;;;34.53;;
19111;SDS011;9688;51.906;8.376;2023-02-11T07:35:43;80.87;;;35.53;;
19111;SDS011;9688;51.906;8.376;2023-02-11T07:38:30;82.80;;;35.77;;
19111;SDS011;9688;51.906;8.376;2023-02-11T07:41:16;89.53;;;34.53;;
19111;SDS011;9688;51.906;8.376;2023-02-11T07:44:04;86.10;;;35.83;;
19111;SDS011;9688;51.906;8.376;2023-02-11T07:46:50;79.07;;;34.70;;
19111;SDS011;9688;51.906;8.376;2023-02-11T07:49:38;74.83;;;33.70;;
19111;SDS011;9688;51.906;8.376;2023-02-11T07:52:25;77.10;;;35.23;;
19111;SDS011;9688;51.906;8.376;2023-02-11T07:55:13;90.77;;;36.93;;
19111;SDS011;9688;51.906;8.376;2023-02-11T07:58:00;82.50;;;36.23;;
19111;SDS011;9688;51.906;8.376;2023-02-11T08:00:45;79.33;;;35.43;;
19111;SDS011;9688;51.906;8.376;2023-02-11T08:03:31;81.00;;;35.10;;
19111;SDS011;9688;51.906;8.376;2023-02-11T08:06:19;88.73;;;36.77;;
19111;SDS011;9688;51.906;8.376;2023-02-11T08:09:09;85.13;;;37.70;;
19111;SDS011;9688;51.906;8.376;2023-02-11T08:11:59;88.13;;;35.33;;
19111;SDS011;9688;51.906;8.376;2023-02-11T08:14:46;80.67;;;36.33;;
19111;SDS011;9688;51.906;8.376;2023-02-11T08:17:33;89.73;;;36.27;;
19111;SDS011;9688;51.906;8.376;2023-02-11T08:20:19;86.07;;;36.07;;
19111;SDS011;9688;51.906;8.376;2023-02-11T08:23:05;81.33;;;35.00;;
19111;SDS011;9688;51.906;8.376;2023-02-11T08:25:52;82.07;;;34.73;;
19111;SDS011;9688;51.906;8.376;2023-02-11T08:28:40;88.30;;;36.67;;
19111;SDS011;9688;51.906;8.376;2023-02-11T08:31:31;90.33;;;36.63;;
19111;SDS011;9688;51.906;8.376;2023-02-11T08:34:21;92.03;;;37.33;;
19111;SDS011;9688;51.906;8.376;2023-02-11T08:37:07;89.80;;;36.33;;
19111;SDS011;9688;51.906;8.376;2023-02-11T08:39:53;90.07;;;36.83;;
19111;SDS011;9688;51.906;8.376;2023-02-11T08:42:40;84.93;;;35.63;;
19111;SDS011;9688;51.906;8.376;2023-02-11T08:45:26;87.77;;;36.20;;
19111;SDS011;9688;51.906;8.376;2023-02-11T08:48:12;92.23;;;36.40;;
19111;SDS011;9688;51.906;8.376;2023-02-11T08:50:58;86.63;;;37.03;;
19111;SDS011;9688;51.906;8.376;2023-02-11T08:53:46;94.20;;;36.40;;
19111;SDS011;9688;51.906;8.376;2023-02-11T08:56:35;96.40;;;36.83;;
19111;SDS011;9688;51.906;8.376;2023-02-11T08:59:25;90.77;;;36.73;;
19111;SDS011;9688;51.906;8.376;2023-02-11T09:02:11;97.87;;;37.47;;
19111;SDS011;9688;51.906;8.376;2023-02-11T09:04:58;92.23;;;38.87;;
19111;SDS011;9688;51.906;8.376;2023-02-11T09:07:44;95.33;;;37.13;;
19111;SDS011;9688;51.906;8.376;2023-02-11T09:10:30;96.67;;;37.13;;
19111;SDS011;9688;51.906;8.376;2023-02-11T09:13:16;97.93;;;37.33;;
19111;SDS011;9688;51.906;8.376;2023-02-11T09:16:03;96.43;;;38.63;;
19111;SDS011;9688;51.906;8.376;2023-02-11T09:18:50;99.30;;;38.40;;
19111;SDS011;9688;51.906;8.376;2023-02-11T09:21:37;100.67;;;39.03;;
19111;SDS011;9688;51.906;8.376;2023-02-11T09:24:25;98.43;;;36.40;;
19111;SDS011;9688;51.906;8.376;2023-02-11T09:27:13;94.77;;;37.87;;
19111;SDS011;9688;51.906;8.376;2023-02-11T09:29:59;100.03;;;37.93;;
19111;SDS011;9688;51.906;8.376;2023-02-11T09:32:53;103.27;;;37.77;;
19111;SDS011;9688;51.906;8.376;2023-02-11T09:35:40;101.77;;;38.40;;
19111;SDS011;9688;51.906;8.376;2023-02-11T09:38:28;99.37;;;38.70;;
19111;SDS011;9688;51.906;8.376;2023-02-11T09:41:32;95.37;;;36.90;;
19111;SDS011;9688;51.906;8.376;2023-02-11T09:44:26;97.37;;;36.93;;
19111;SDS011;9688;51.906;8.376;2023-02-11T09:47:21;104.80;;;38.00;;
19111;SDS011;9688;51.906;8.376;2023-02-11T09:50:16;106.70;;;38.50;;
19111;SDS011;9688;51.906;8.376;2023-02-11T09:53:10;102.50;;;38.80;;
19111;SDS011;9688;51.906;8.376;2023-02-11T09:56:08;105.90;;;38.97;;
19111;SDS011;9688;51.906;8.376;2023-02-11T09:58:57;100.00;;;38.37;;
19111;SDS011;9688;51.906;8.376;2023-02-11T10:01:44;101.27;;;37.60;;
19111;SDS011;9688;51.906;8.376;2023-02-11T10:04:39;93.23;;;37.33;;
19111;SDS011;9688;51.906;8.376;2023-02-11T10:07:36;93.73;;;37.10;;
19111;SDS011;9688;51.906;8.376;2023-02-11T10:10:34;88.73;;;37.73;;
19111;SDS011;9688;51.906;8.376;2023-02-11T10:13:32;101.70;;;36.80;;
19111;SDS011;9688;51.906;8.376;2023-02-11T10:16:32;96.30;;;36.43;;
19111;SDS011;9688;51.906;8.376;2023-02-11T10:19:37;90.30;;;35.30;;
19111;SDS011;9688;51.906;8.376;2023-02-11T10:22:34;94.00;;;36.57;;
19111;SDS011;9688;51.906;8.376;2023-02-11T10:25:25;94.90;;;36.43;;
19111;SDS011;9688;51.906;8.376;2023-02-11T10:28:14;87.47;;;35.63;;
19111;SDS011;9688;51.906;8.376;2023-02-11T10:31:04;103.90;;;38.27;;
19111;SDS011;9688;51.906;8.376;2023-02-11T10:33:55;95.27;;;36.67;;
19111;SDS011;9688;51.906;8.376;2023-02-11T10:36:44;104.83;;;38.33;;
19111;SDS011;9688;51.906;8.376;2023-02-11T10:39:32;99.80;;;37.70;;
19111;SDS011;9688;51.906;8.376;2023-02-11T10:42:20;90.40;;;36.77;;
19111;SDS011;9688;51.906;8.376;2023-02-11T10:45:13;98.17;;;38.80;;
19111;SDS011;9688;51.906;8.376;2023-02-11T10:48:05;99.87;;;39.10;;
19111;SDS011;9688;51.906;8.376;2023-02-11T10:51:15;90.57;;;35.50;;
19111;SDS011;9688;51.906;8.376;2023-02-11T10:54:10;95.10;;;37.53;;
19111;SDS011;9688;51.906;8.376;2023-02-11T10:57:05;96.40;;;37.43;;
19111;SDS011;9688;51.906;8.376;2023-02-11T11:00:07;98.53;;;39.00;;
19111;SDS011;9688;51.906;8.376;2023-02-11T11:03:14;94.43;;;39.10;;
19111;SDS011;9688;51.906;8.376;2023-02-11T11:06:04;100.87;;;37.77;;
19111;SDS011;9688;51.906;8.376;2023-02-11T11:08:52;99.67;;;37.87;;
19111;SDS011;9688;51.906;8.376;2023-02-11T11:11:38;85.33;;;36.57;;
19111;SDS011;9688;51.906;8.376;2023-02-11T11:14:37;97.93;;;37.20;;
19111;SDS011;9688;51.906;8.376;2023-02-11T11:17:23;95.90;;;36.13;;
19111;SDS011;9688;51.906;8.376;2023-02-11T11:20:13;106.67;;;37.73;;
19111;SDS011;9688;51.906;8.376;2023-02-11T11:23:09;92.70;;;36.13;;
19111;SDS011;9688;51.906;8.376;2023-02-11T11:26:04;86.63;;;37.07;;
19111;SDS011;9688;51.906;8.376;2023-02-11T11:28:55;94.83;;;36.40;;
19111;SDS011;9688;51.906;8.376;2023-02-11T11:31:48;93.40;;;35.97;;
19111;SDS011;9688;51.906;8.376;2023-02-11T11:34:36;88.17;;;36.43;;
19111;SDS011;9688;51.906;8.376;2023-02-11T11:37:26;93.33;;;35.70;;
19111;SDS011;9688;51.906;8.376;2023-02-11T11:40:20;89.10;;;34.30;;
19111;SDS011;9688;51.906;8.376;2023-02-11T11:43:15;81.20;;;34.97;;
19111;SDS011;9688;51.906;8.376;2023-02-11T11:46:03;92.23;;;34.93;;
19111;SDS011;9688;51.906;8.376;2023-02-11T11:48:51;83.63;;;34.90;;
19111;SDS011;9688;51.906;8.376;2023-02-11T11:51:41;85.97;;;35.60;;
19111;SDS011;9688;51.906;8.376;2023-02-11T11:54:35;80.63;;;35.00;;
19111;SDS011;9688;51.906;8.376;2023-02-11T11:57:23;81.43;;;34.20;;
19111;SDS011;9688;51.906;8.376;2023-02-11T12:00:17;77.70;;;34.03;;
19111;SDS011;9688;51.906;8.376;2023-02-11T12:06:36;84.73;;;35.57;;
19111;SDS011;9688;51.906;8.376;2023-02-11T12:09:33;85.20;;;32.37;;
19111;SDS011;9688;51.906;8.376;2023-02-11T12:12:33;80.67;;;33.80;;
19111;SDS011;9688;51.906;8.376;2023-02-11T12:15:31;79.97;;;33.53;;
19111;SDS011;9688;51.906;8.376;2023-02-11T12:18:29;78.10;;;33.70;;
19111;SDS011;9688;51.906;8.376;2023-02-11T12:21:29;82.67;;;31.90;;
19111;SDS011;9688;51.906;8.376;2023-02-11T12:24:28;82.57;;;33.00;;
19111;SDS011;9688;51.906;8.376;2023-02-11T12:27:40;72.30;;;32.13;;
19111;SDS011;9688;51.906;8.376;2023-02-11T12:30:38;71.10;;;32.67;;
19111;SDS011;9688;51.906;8.376;2023-02-11T12:33:43;80.30;;;32.80;;
19111;SDS011;9688;51.906;8.376;2023-02-11T12:36:53;81.00;;;32.77;;
19111;SDS011;9688;51.906;8.376;2023-02-11T12:39:49;79.03;;;32.50;;
19111;SDS011;9688;51.906;8.376;2023-02-11T12:42:46;73.97;;;32.90;;
19111;SDS011;9688;51.906;8.376;2023-02-11T12:45:59;78.53;;;32.13;;
19111;SDS011;9688;51.906;8.376;2023-02-11T12:49:02;71.77;;;29.93;;
19111;SDS011;9688;51.906;8.376;2023-02-11T12:52:06;71.00;;;31.27;;
19111;SDS011;9688;51.906;8.376;2023-02-11T12:55:02;62.90;;;29.73;;
19111;SDS011;9688;51.906;8.376;2023-02-11T12:57:56;68.37;;;30.47;;
19111;SDS011;9688;51.906;8.376;2023-02-11T13:00:45;67.23;;;28.80;;
19111;SDS011;9688;51.906;8.376;2023-02-11T13:03:37;67.10;;;29.40;;
19111;SDS011;9688;51.906;8.376;2023-02-11T13:06:28;70.03;;;28.40;;
19111;SDS011;9688;51.906;8.376;2023-02-11T13:09:23;69.67;;;28.97;;
19111;SDS011;9688;51.906;8.376;2023-02-11T13:12:11;69.80;;;29.33;;
19111;SDS011;9688;51.906;8.376;2023-02-11T13:15:17;61.83;;;28.90;;
19111;SDS011;9688;51.906;8.376;2023-02-11T13:18:05;65.30;;;27.43;;
19111;SDS011;9688;51.906;8.376;2023-02-11T13:21:07;56.70;;;25.97;;
19111;SDS011;9688;51.906;8.376;2023-02-11T13:24:18;58.10;;;24.93;;
19111;SDS011;9688;51.906;8.376;2023-02-11T13:27:19;60.80;;;25.90;;
19111;SDS011;9688;51.906;8.376;2023-02-11T13:30:20;57.97;;;25.77;;
19111;SDS011;9688;51.906;8.376;2023-02-11T13:33:19;52.83;;;25.63;;
19111;SDS011;9688;51.906;8.376;2023-02-11T13:36:16;58.47;;;24.73;;
19111;SDS011;9688;51.906;8.376;2023-02-11T13:39:18;52.20;;;24.37;;
19111;SDS011;9688;51.906;8.376;2023-02-11T13:42:10;54.43;;;23.70;;
19111;SDS011;9688;51.906;8.376;2023-02-11T13:45:01;55.87;;;24.27;;
19111;SDS011;9688;51.906;8.376;2023-02-11T13:47:49;52.00;;;23.50;;
19111;SDS011;9688;51.906;8.376;2023-02-11T13:50:44;53.90;;;24.30;;
19111;SDS011;9688;51.906;8.376;2023-02-11T13:53:43;49.67;;;22.77;;
19111;SDS011;9688;51.906;8.376;2023-02-11T13:56:32;53.77;;;22.27;;
19111;SDS011;9688;51.906;8.376;2023-02-11T14:02:34;49.13;;;23.00;;
19111;SDS011;9688;51.906;8.376;2023-02-11T14:05:39;51.70;;;22.67;;
19111;SDS011;9688;51.906;8.376;2023-02-11T14:09:33;50.17;;;22.10;;
19111;SDS011;9688;51.906;8.376;2023-02-11T14:12:29;46.30;;;22.67;;
19111;SDS011;9688;51.906;8.376;2023-02-11T14:15:26;48.70;;;21.63;;
19111;SDS011;9688;51.906;8.376;2023-02-11T14:21:43;49.00;;;22.33;;
19111;SDS011;9688;51.906;8.376;2023-02-11T14:24:48;53.97;;;23.13;;
19111;SDS011;9688;51.906;8.376;2023-02-11T14:27:40;51.43;;;23.03;;
19111;SDS011;9688;51.906;8.376;2023-02-11T14:30:31;50.30;;;22.00;;
19111;SDS011;9688;51.906;8.376;2023-02-11T14:33:37;49.20;;;22.47;;
19111;SDS011;9688;51.906;8.376;2023-02-11T14:36:49;51.17;;;22.77;;
19111;SDS011;9688;51.906;8.376;2023-02-11T14:39:55;51.83;;;22.70;;
19111;SDS011;9688;51.906;8.376;2023-02-11T14:42:49;49.07;;;22.73;;
19111;SDS011;9688;51.906;8.376;2023-02-11T14:45:38;55.67;;;23.80;;
19111;SDS011;9688;51.906;8.376;2023-02-11T14:48:28;49.43;;;22.17;;
19111;SDS011;9688;51.906;8.376;2023-02-11T14:51:19;48.70;;;23.50;;
19111;SDS011;9688;51.906;8.376;2023-02-11T14:54:09;47.50;;;23.93;;
19111;SDS011;9688;51.906;8.376;2023-02-11T14:57:07;51.00;;;23.03;;
19111;SDS011;9688;51.906;8.376;2023-02-11T15:00:03;45.53;;;22.10;;
19111;SDS011;9688;51.906;8.376;2023-02-11T15:03:02;53.17;;;23.50;;
19111;SDS011;9688;51.906;8.376;2023-02-11T15:05:52;51.50;;;23.03;;
19111;SDS011;9688;51.906;8.376;2023-02-11T15:08:42;46.13;;;22.47;;
19111;SDS011;9688;51.906;8.376;2023-02-11T15:11:33;48.83;;;21.87;;
19111;SDS011;9688;51.906;8.376;2023-02-11T15:14:25;52.90;;;23.53;;
19111;SDS011;9688;51.906;8.376;2023-02-11T15:17:16;48.13;;;22.13;;
19111;SDS011;9688;51.906;8.376;2023-02-11T15:20:17;51.43;;;23.50;;
19111;SDS011;9688;51.906;8.376;2023-02-11T15:23:10;48.27;;;22.37;;
19111;SDS011;9688;51.906;8.376;2023-02-11T15:26:05;44.97;;;22.90;;
19111;SDS011;9688;51.906;8.376;2023-02-11T15:28:58;46.53;;;22.43;;
19111;SDS011;9688;51.906;8.376;2023-02-11T15:31:44;57.07;;;23.37;;
19111;SDS011;9688;51.906;8.376;2023-02-11T15:34:30;48.43;;;22.77;;
19111;SDS011;9688;51.906;8.376;2023-02-11T15:37:19;48.00;;;22.63;;
19111;SDS011;9688;51.906;8.376;2023-02-11T15:40:16;53.67;;;23.50;;
19111;SDS011;9688;51.906;8.376;2023-02-11T15:43:06;46.53;;;22.03;;
19111;SDS011;9688;51.906;8.376;2023-02-11T15:45:56;43.03;;;21.30;;
19111;SDS011;9688;51.906;8.376;2023-02-11T15:48:46;52.00;;;22.73;;
19111;SDS011;9688;51.906;8.376;2023-02-11T15:51:35;50.07;;;24.13;;
19111;SDS011;9688;51.906;8.376;2023-02-11T15:54:25;46.00;;;21.40;;
19111;SDS011;9688;51.906;8.376;2023-02-11T15:57:12;48.63;;;23.20;;
19111;SDS011;9688;51.906;8.376;2023-02-11T15:59:59;46.07;;;21.53;;
19111;SDS011;9688;51.906;8.376;2023-02-11T16:02:50;52.43;;;23.10;;
19111;SDS011;9688;51.906;8.376;2023-02-11T16:05:37;50.33;;;21.97;;
19111;SDS011;9688;51.906;8.376;2023-02-11T16:08:24;46.43;;;21.93;;
19111;SDS011;9688;51.906;8.376;2023-02-11T16:11:21;50.37;;;22.33;;
19111;SDS011;9688;51.906;8.376;2023-02-11T16:14:20;45.20;;;21.50;;
19111;SDS011;9688;51.906;8.376;2023-02-11T16:17:08;45.80;;;21.97;;
19111;SDS011;9688;51.906;8.376;2023-02-11T16:20:16;44.90;;;21.47;;
19111;SDS011;9688;51.906;8.376;2023-02-11T16:23:05;52.73;;;23.37;;
19111;SDS011;9688;51.906;8.376;2023-02-11T16:25:57;52.00;;;22.43;;
19111;SDS011;9688;51.906;8.376;2023-02-11T16:28:49;47.37;;;23.23;;
19111;SDS011;9688;51.906;8.376;2023-02-11T16:31:36;51.63;;;22.60;;
19111;SDS011;9688;51.906;8.376;2023-02-11T16:34:24;51.17;;;23.53;;
19111;SDS011;9688;51.906;8.376;2023-02-11T16:37:10;48.80;;;22.00;;
19111;SDS011;9688;51.906;8.376;2023-02-11T16:39:57;48.50;;;21.27;;
19111;SDS011;9688;51.906;8.376;2023-02-11T16:42:43;49.67;;;23.13;;
19111;SDS011;9688;51.906;8.376;2023-02-11T16:45:30;50.93;;;24.13;;
19111;SDS011;9688;51.906;8.376;2023-02-11T16:48:16;45.53;;;23.30;;
19111;SDS011;9688;51.906;8.376;2023-02-11T16:51:04;48.43;;;22.67;;
19111;SDS011;9688;51.906;8.376;2023-02-11T16:53:52;53.50;;;24.77;;
19111;SDS011;9688;51.906;8.376;2023-02-11T16:56:38;45.57;;;22.80;;
19111;SDS011;9688;51.906;8.376;2023-02-11T16:59:25;49.30;;;22.73;;
19111;SDS011;9688;51.906;8.376;2023-02-11T17:02:14;42.77;;;21.70;;
19111;SDS011;9688;51.906;8.376;2023-02-11T17:05:06;50.30;;;23.80;;
19111;SDS011;9688;51.906;8.376;2023-02-11T17:08:00;52.77;;;23.67;;
19111;SDS011;9688;51.906;8.376;2023-02-11T17:10:46;43.10;;;19.93;;
19111;SDS011;9688;51.906;8.376;2023-02-11T17:13:32;47.93;;;22.67;;
19111;SDS011;9688;51.906;8.376;2023-02-11T17:16:20;46.20;;;22.83;;